createdAt,value
2023-09-18T00:01:29.752Z,100.00
2023-09-18T00:03:59.124Z,100.00
2023-09-18T00:06:27.543Z,100.00
2023-09-18T00:08:55.930Z,100.00
2023-09-18T00:11:24.314Z,100.00
2023-09-18T00:13:54.114Z,100.00
2023-09-18T00:16:22.499Z,100.00
2023-09-18T00:18:51.074Z,100.00
2023-09-18T00:21:19.661Z,100.00
2023-09-18T00:23:47.977Z,100.00
2023-09-18T00:26:16.331Z,100.00
2023-09-18T00:28:44.705Z,100.00
2023-09-18T00:31:14.465Z,100.00
2023-09-18T00:33:42.934Z,100.00
2023-09-18T00:36:11.739Z,100.00
2023-09-18T00:38:40.048Z,100.00
2023-09-18T00:41:08.527Z,100.00
2023-09-18T00:43:37.273Z,100.00
2023-09-18T00:46:05.748Z,100.00
2023-09-18T00:48:35.668Z,100.00
2023-09-18T00:51:04.587Z,100.00
2023-09-18T00:53:33.747Z,100.00
2023-09-18T00:56:03.427Z,100.00
2023-09-18T00:58:31.986Z,100.00
2023-09-18T01:01:00.770Z,100.00
2023-09-18T01:03:29.471Z,100.00
2023-09-18T01:05:59.234Z,100.00
2023-09-18T01:08:27.752Z,100.00
2023-09-18T01:11:04.416Z,100.00
2023-09-18T01:13:39.281Z,100.00
2023-09-18T01:16:12.940Z,100.00
2023-09-18T01:18:41.276Z,100.00
2023-09-18T01:21:10.889Z,100.00
2023-09-18T01:23:40.586Z,100.00
2023-09-18T01:26:09.338Z,100.00
2023-09-18T01:28:37.731Z,100.00
2023-09-18T01:31:06.109Z,100.00
2023-09-18T01:33:37.072Z,100.00
2023-09-18T01:36:08.865Z,100.00
2023-09-18T01:38:38.932Z,100.00
2023-09-18T01:41:10.454Z,100.00
2023-09-18T01:43:38.755Z,100.00
2023-09-18T01:46:07.914Z,100.00
2023-09-18T01:48:36.281Z,100.00
2023-09-18T01:51:04.633Z,100.00
2023-09-18T01:53:33.097Z,100.00
2023-09-18T01:56:01.611Z,100.00
2023-09-18T01:58:31.576Z,100.00
2023-09-18T02:01:03.118Z,100.00
2023-09-18T02:03:42.402Z,100.00
2023-09-18T02:06:20.214Z,100.00
2023-09-18T02:08:48.673Z,100.00
2023-09-18T02:11:17.079Z,100.00
2023-09-18T02:13:46.838Z,100.00
2023-09-18T02:16:15.222Z,100.00
2023-09-18T02:18:44.706Z,100.00
2023-09-18T02:21:12.017Z,100.00
2023-09-18T02:23:40.300Z,100.00
2023-09-18T02:26:09.558Z,100.00
2023-09-18T02:28:37.932Z,100.00
2023-09-18T02:31:07.586Z,100.00
2023-09-18T02:33:35.896Z,100.00
2023-09-18T02:36:04.306Z,100.00
2023-09-18T02:38:32.705Z,100.00
2023-09-18T02:41:01.262Z,100.00
2023-09-18T02:43:29.600Z,100.00
2023-09-18T02:45:57.971Z,100.00
2023-09-18T02:48:27.760Z,100.00
2023-09-18T02:50:56.039Z,100.00
2023-09-18T02:53:25.745Z,100.00
2023-09-18T02:55:55.758Z,100.00
2023-09-18T02:58:29.170Z,100.00
2023-09-18T03:00:59.631Z,100.00
2023-09-18T03:03:29.435Z,100.00
2023-09-18T03:06:04.224Z,100.00
2023-09-18T03:08:32.975Z,100.00
2023-09-18T03:11:01.540Z,100.00
2023-09-18T03:13:30.528Z,100.00
2023-09-18T03:15:58.850Z,100.00
2023-09-18T03:18:28.543Z,100.00
2023-09-18T03:20:56.884Z,100.00
2023-09-18T03:23:25.308Z,100.00
2023-09-18T03:25:53.602Z,100.00
2023-09-18T03:28:22.005Z,100.00
2023-09-18T03:30:49.231Z,100.00
2023-09-18T03:33:17.607Z,100.00
2023-09-18T03:35:51.983Z,100.00
2023-09-18T03:38:20.440Z,100.00
2023-09-18T03:40:48.727Z,100.00
2023-09-18T03:43:17.011Z,100.00
2023-09-18T03:45:45.282Z,100.00
2023-09-18T03:48:13.725Z,100.00
2023-09-18T03:50:43.123Z,100.00
2023-09-18T03:53:13.213Z,100.00
2023-09-18T03:55:41.500Z,100.00
2023-09-18T03:58:09.816Z,100.00
2023-09-18T04:00:38.602Z,100.00
2023-09-18T04:03:06.970Z,100.00
2023-09-18T04:05:35.361Z,100.00
2023-09-18T04:08:03.699Z,100.00
2023-09-18T04:10:34.297Z,100.00
2023-09-18T04:13:02.748Z,100.00
2023-09-18T04:15:32.422Z,100.00
2023-09-18T04:18:00.774Z,100.00
2023-09-18T04:20:29.515Z,100.00
2023-09-18T04:23:23.766Z,100.00
2023-09-18T04:25:54.346Z,100.00
2023-09-18T04:28:23.925Z,100.00
2023-09-18T04:30:52.421Z,100.00
2023-09-18T04:33:22.845Z,100.00
2023-09-18T04:35:51.584Z,100.00
2023-09-18T04:38:20.949Z,100.00
2023-09-18T04:40:49.588Z,100.00
2023-09-18T04:43:19.223Z,100.00
2023-09-18T04:45:47.771Z,100.00
2023-09-18T04:48:16.120Z,100.00
2023-09-18T04:50:44.740Z,100.00
2023-09-18T04:53:13.186Z,100.00
2023-09-18T04:55:41.508Z,100.00
2023-09-18T04:58:09.923Z,100.00
2023-09-18T05:00:39.619Z,100.00
2023-09-18T05:03:09.572Z,100.00
2023-09-18T05:05:38.221Z,100.00
2023-09-18T05:08:09.371Z,100.00
2023-09-18T05:10:37.966Z,100.00
2023-09-18T05:13:06.278Z,100.00
2023-09-18T05:15:34.730Z,100.00
2023-09-18T05:18:05.457Z,100.00
2023-09-18T05:20:34.287Z,100.00
2023-09-18T05:23:03.614Z,100.00
2023-09-18T05:25:34.020Z,100.00
2023-09-18T05:28:05.374Z,100.00
2023-09-18T05:30:36.424Z,100.00
2023-09-18T05:33:07.697Z,100.00
2023-09-18T05:35:37.965Z,100.00
2023-09-18T05:38:06.454Z,100.00
2023-09-18T05:40:35.081Z,100.00
2023-09-18T05:43:03.493Z,100.00
2023-09-18T05:45:32.965Z,100.00
2023-09-18T05:48:05.480Z,100.00
2023-09-18T05:50:38.130Z,100.00
2023-09-18T05:53:07.087Z,100.00
2023-09-18T05:55:36.282Z,100.00
2023-09-18T05:58:06.236Z,100.00
2023-09-18T06:00:34.977Z,100.00
2023-09-18T06:03:03.645Z,100.00
2023-09-18T06:05:35.194Z,97.39
2023-09-18T06:08:05.595Z,96.28
2023-09-18T06:10:33.977Z,96.71
2023-09-18T06:13:05.633Z,95.20
2023-09-18T06:15:34.483Z,90.45
2023-09-18T06:18:03.130Z,88.06
2023-09-18T06:20:31.766Z,88.32
2023-09-18T06:23:00.237Z,85.05
2023-09-18T06:25:29.942Z,88.16
2023-09-18T06:27:58.265Z,92.34
2023-09-18T06:30:26.614Z,91.50
2023-09-18T06:32:55.409Z,93.32
2023-09-18T06:35:23.901Z,89.27
2023-09-18T06:37:52.310Z,90.18
2023-09-18T06:40:20.735Z,85.08
2023-09-18T06:42:50.924Z,83.24
2023-09-18T06:45:19.472Z,82.56
2023-09-18T06:47:48.299Z,80.84
2023-09-18T06:50:16.758Z,78.45
2023-09-18T06:52:45.091Z,78.29
2023-09-18T06:55:13.360Z,77.95
2023-09-18T06:57:42.454Z,80.32
2023-09-18T07:00:15.517Z,76.37
2023-09-18T07:02:44.014Z,72.42
2023-09-18T07:05:12.464Z,73.12
2023-09-18T07:07:40.827Z,71.61
2023-09-18T07:10:09.837Z,73.76
2023-09-18T07:12:38.708Z,70.83
2023-09-18T07:15:08.524Z,70.25
2023-09-18T07:17:38.352Z,69.39
2023-09-18T07:20:15.382Z,71.29
2023-09-18T07:22:49.493Z,74.30
2023-09-18T07:25:18.111Z,76.83
2023-09-18T07:27:46.416Z,80.08
2023-09-18T07:30:17.383Z,81.86
2023-09-18T07:32:47.828Z,85.49
2023-09-18T07:35:17.379Z,86.13
2023-09-18T07:37:48.284Z,85.60
2023-09-18T07:40:18.098Z,87.40
2023-09-18T07:42:46.860Z,87.87
2023-09-18T07:45:15.860Z,87.45
2023-09-18T07:47:44.207Z,85.37
2023-09-18T07:50:17.208Z,82.25
2023-09-18T07:52:46.895Z,75.84
2023-09-18T07:55:15.115Z,72.92
2023-09-18T07:57:45.748Z,71.51
2023-09-18T08:00:16.907Z,65.67
2023-09-18T08:02:45.642Z,65.41
2023-09-18T08:05:16.130Z,65.89
2023-09-18T08:07:44.420Z,64.65
2023-09-18T08:10:14.011Z,63.15
2023-09-18T08:12:42.313Z,64.45
2023-09-18T08:15:11.329Z,61.14
2023-09-18T08:17:41.569Z,60.74
2023-09-18T08:20:14.439Z,61.00
2023-09-18T08:22:44.842Z,59.13
2023-09-18T08:25:13.867Z,56.64
2023-09-18T08:27:43.323Z,57.39
2023-09-18T08:30:12.955Z,58.96
2023-09-18T08:32:42.340Z,54.22
2023-09-18T08:35:11.872Z,52.42
2023-09-18T08:37:40.223Z,53.78
2023-09-18T08:40:14.473Z,52.89
2023-09-18T08:42:48.109Z,55.58
2023-09-18T08:45:21.456Z,54.18
2023-09-18T08:47:50.605Z,51.35
2023-09-18T08:50:20.108Z,49.14
2023-09-18T08:52:49.734Z,47.46
2023-09-18T08:55:20.136Z,47.10
2023-09-18T08:57:49.027Z,43.45
2023-09-18T09:00:18.873Z,45.17
2023-09-18T09:02:50.210Z,41.86
2023-09-18T09:05:19.244Z,41.72
2023-09-18T09:07:47.822Z,41.52
2023-09-18T09:10:16.064Z,39.65
2023-09-18T09:12:59.770Z,39.75
2023-09-18T09:15:30.464Z,38.90
2023-09-18T09:18:07.341Z,41.58
2023-09-18T09:20:36.887Z,41.97
2023-09-18T09:23:06.992Z,42.45
2023-09-18T09:25:35.877Z,42.76
2023-09-18T09:28:07.153Z,41.69
2023-09-18T09:30:37.758Z,40.11
2023-09-18T09:33:07.951Z,39.11
2023-09-18T09:35:38.162Z,37.44
2023-09-18T09:38:10.882Z,37.10
2023-09-18T09:40:41.955Z,37.35
2023-09-18T09:43:14.849Z,36.59
2023-09-18T09:45:43.998Z,37.52
2023-09-18T09:48:12.508Z,35.14
2023-09-18T09:50:48.489Z,35.07
2023-09-18T09:53:17.072Z,36.89
2023-09-18T09:55:45.582Z,37.87
2023-09-18T09:58:15.812Z,38.74
2023-09-18T10:00:47.418Z,39.44
2023-09-18T10:03:18.066Z,40.85
2023-09-18T10:05:47.891Z,41.14
2023-09-18T10:08:20.269Z,40.58
2023-09-18T10:10:50.555Z,41.45
2023-09-18T10:13:23.121Z,41.16
2023-09-18T10:15:53.265Z,37.86
2023-09-18T10:18:29.407Z,40.58
2023-09-18T10:21:04.520Z,38.65
2023-09-18T10:23:48.528Z,36.69
2023-09-18T10:26:26.243Z,36.00
2023-09-18T10:28:59.853Z,35.80
2023-09-18T10:31:30.683Z,35.46
2023-09-18T10:33:59.636Z,33.39
2023-09-18T10:36:28.518Z,35.83
2023-09-18T10:38:57.631Z,36.23
2023-09-18T10:41:26.675Z,36.56
2023-09-18T10:43:58.817Z,37.75
2023-09-18T10:46:28.261Z,38.89
2023-09-18T10:48:57.674Z,37.88
2023-09-18T10:51:27.176Z,36.24
2023-09-18T10:53:55.758Z,35.30
2023-09-18T10:56:24.464Z,33.63
2023-09-18T10:59:01.169Z,34.13
2023-09-18T11:01:30.528Z,33.75
2023-09-18T11:04:02.980Z,34.81
2023-09-18T11:06:32.173Z,35.89
2023-09-18T11:09:11.313Z,39.11
2023-09-18T11:11:39.623Z,36.70
2023-09-18T11:14:14.755Z,36.11
2023-09-18T11:16:44.900Z,34.77
2023-09-18T11:19:16.517Z,33.30
2023-09-18T11:21:44.865Z,32.92
2023-09-18T11:24:19.352Z,31.99
2023-09-18T11:26:49.055Z,32.37
2023-09-18T11:29:20.549Z,33.07
2023-09-18T11:31:51.616Z,33.91
2023-09-18T11:34:24.090Z,33.64
2023-09-18T11:36:53.164Z,33.33
2023-09-18T11:39:38.748Z,32.56
2023-09-18T11:42:12.678Z,32.71
2023-09-18T11:44:47.906Z,34.64
2023-09-18T11:47:22.935Z,33.04
2023-09-18T11:49:55.772Z,32.58
2023-09-18T11:52:26.554Z,32.95
2023-09-18T11:54:55.912Z,34.65
2023-09-18T11:57:24.646Z,34.43
2023-09-18T11:59:54.597Z,34.85
2023-09-18T12:02:36.861Z,34.55
2023-09-18T12:05:13.649Z,33.11
2023-09-18T12:07:44.828Z,32.69
2023-09-18T12:10:14.508Z,33.69
2023-09-18T12:12:44.603Z,31.69
2023-09-18T12:15:16.444Z,32.38
2023-09-18T12:17:44.991Z,31.52
2023-09-18T12:20:20.716Z,32.78
2023-09-18T12:22:51.650Z,31.03
2023-09-18T12:25:20.594Z,31.97
2023-09-18T12:27:54.540Z,33.56
2023-09-18T12:30:25.039Z,36.29
2023-09-18T12:32:54.689Z,36.93
2023-09-18T12:35:24.613Z,36.65
2023-09-18T12:37:53.308Z,35.49
2023-09-18T12:40:26.339Z,36.53
2023-09-18T12:42:56.212Z,36.30
2023-09-18T12:45:26.876Z,36.23
2023-09-18T12:47:58.155Z,35.94
2023-09-18T12:50:27.615Z,34.50
2023-09-18T12:52:56.036Z,35.04
2023-09-18T12:55:26.226Z,36.63
2023-09-18T12:57:54.859Z,33.44
2023-09-18T13:00:28.240Z,32.54
2023-09-18T13:02:57.858Z,31.61
2023-09-18T13:05:28.145Z,33.27
2023-09-18T13:07:59.944Z,34.38
2023-09-18T13:10:29.127Z,34.92
2023-09-18T13:12:59.196Z,34.42
2023-09-18T13:15:31.084Z,35.42
2023-09-18T13:18:01.862Z,36.35
2023-09-18T13:20:31.797Z,35.92
2023-09-18T13:23:02.001Z,36.67
2023-09-18T13:25:32.396Z,37.04
2023-09-18T13:28:00.755Z,36.72
2023-09-18T13:30:30.486Z,37.87
2023-09-18T13:33:07.469Z,38.34
2023-09-18T13:35:40.644Z,38.54
2023-09-18T13:38:09.994Z,39.07
2023-09-18T13:40:38.657Z,38.83
2023-09-18T13:43:07.821Z,39.61
2023-09-18T13:45:38.230Z,39.14
2023-09-18T13:48:07.530Z,37.79
2023-09-18T13:50:37.074Z,37.85
2023-09-18T13:53:06.817Z,38.57
2023-09-18T13:55:35.472Z,36.29
2023-09-18T13:58:05.176Z,37.39
2023-09-18T14:00:34.252Z,36.57
2023-09-18T14:03:05.281Z,36.57
2023-09-18T14:05:35.436Z,38.19
2023-09-18T14:08:05.317Z,36.76
2023-09-18T14:10:33.865Z,36.93
2023-09-18T14:13:02.274Z,36.57
2023-09-18T14:15:30.822Z,38.18
2023-09-18T14:17:59.226Z,38.51
2023-09-18T14:20:29.167Z,37.26
2023-09-18T14:22:57.671Z,38.25
2023-09-18T14:25:27.286Z,35.77
2023-09-18T14:27:55.613Z,35.57
2023-09-18T14:30:27.473Z,36.25
2023-09-18T14:32:55.782Z,35.97
2023-09-18T14:35:24.735Z,36.68
2023-09-18T14:37:54.575Z,35.06
2023-09-18T14:40:28.628Z,37.94
2023-09-18T14:42:56.877Z,37.89
2023-09-18T14:45:25.200Z,38.74
2023-09-18T14:47:53.762Z,38.12
2023-09-18T14:50:22.500Z,38.19
2023-09-18T14:52:51.066Z,38.20
2023-09-18T14:55:20.771Z,36.92
2023-09-18T14:57:55.021Z,38.96
2023-09-18T15:00:23.850Z,39.34
2023-09-18T15:02:52.248Z,38.78
2023-09-18T15:05:20.614Z,39.02
2023-09-18T15:07:48.976Z,39.48
2023-09-18T15:10:17.626Z,39.36
2023-09-18T15:12:51.218Z,43.92
2023-09-18T15:15:20.305Z,44.44
2023-09-18T15:17:48.900Z,44.36
2023-09-18T15:20:18.636Z,44.51
2023-09-18T15:22:47.242Z,45.58
2023-09-18T15:25:16.612Z,46.18
2023-09-18T15:27:45.234Z,43.86
2023-09-18T15:30:16.315Z,43.84
2023-09-18T15:32:54.494Z,44.15
2023-09-18T15:35:23.906Z,44.66
2023-09-18T15:37:52.742Z,43.83
2023-09-18T15:40:22.103Z,44.70
2023-09-18T15:42:51.778Z,46.29
2023-09-18T15:45:21.470Z,48.56
2023-09-18T15:47:49.895Z,48.07
2023-09-18T15:50:18.221Z,48.15
2023-09-18T15:52:46.606Z,50.35
2023-09-18T15:55:15.246Z,52.67
2023-09-18T15:57:44.806Z,54.70
2023-09-18T16:00:14.435Z,54.58
2023-09-18T16:02:44.986Z,54.98
2023-09-18T16:05:14.130Z,56.54
2023-09-18T16:07:43.428Z,56.06
2023-09-18T16:10:12.695Z,55.58
2023-09-18T16:12:40.945Z,56.42
2023-09-18T16:15:11.043Z,56.95
2023-09-18T16:17:39.549Z,56.40
2023-09-18T16:20:11.475Z,56.02
2023-09-18T16:22:41.307Z,57.96
2023-09-18T16:25:10.290Z,60.80
2023-09-18T16:27:38.630Z,61.68
2023-09-18T16:30:10.292Z,64.56
2023-09-18T16:32:40.447Z,65.60
2023-09-18T16:35:11.027Z,65.61
2023-09-18T16:37:40.171Z,64.90
2023-09-18T16:40:12.588Z,66.34
2023-09-18T16:42:40.927Z,67.04
2023-09-18T16:45:10.246Z,67.38
2023-09-18T16:47:38.891Z,70.02
2023-09-18T16:50:08.008Z,68.96
2023-09-18T16:52:40.072Z,71.91
2023-09-18T16:55:09.965Z,73.29
2023-09-18T16:57:38.249Z,74.51
2023-09-18T17:00:09.417Z,73.26
2023-09-18T17:02:37.901Z,72.88
2023-09-18T17:05:07.152Z,73.59
2023-09-18T17:07:35.787Z,73.53
2023-09-18T17:10:06.443Z,74.22
2023-09-18T17:12:38.628Z,72.83
2023-09-18T17:15:09.351Z,70.62
2023-09-18T17:17:37.969Z,71.87
2023-09-18T17:20:07.562Z,72.64
2023-09-18T17:22:36.200Z,71.47
2023-09-18T17:25:07.857Z,71.87
2023-09-18T17:27:36.325Z,69.58
2023-09-18T17:30:06.168Z,70.61
2023-09-18T17:32:35.952Z,69.63
2023-09-18T17:35:04.863Z,69.94
2023-09-18T17:37:33.441Z,68.97
2023-09-18T17:40:01.774Z,68.61
2023-09-18T17:42:31.876Z,69.81
2023-09-18T17:45:00.336Z,68.38
2023-09-18T17:47:28.765Z,69.32
2023-09-18T17:49:57.191Z,69.75
2023-09-18T17:52:25.921Z,70.62
2023-09-18T17:54:55.571Z,70.00
2023-09-18T17:57:24.027Z,71.03
2023-09-18T17:59:53.828Z,69.56
2023-09-18T18:02:22.397Z,69.60
2023-09-18T18:04:53.734Z,69.97
2023-09-18T18:07:22.373Z,71.24
2023-09-18T18:09:50.837Z,71.84
2023-09-18T18:12:21.232Z,72.61
2023-09-18T18:14:51.265Z,72.31
2023-09-18T18:17:21.161Z,71.73
2023-09-18T18:19:51.387Z,71.44
2023-09-18T18:22:19.943Z,70.72
2023-09-18T18:24:48.405Z,71.51
2023-09-18T18:27:16.820Z,72.80
2023-09-18T18:29:45.722Z,71.31
2023-09-18T18:32:14.212Z,71.15
2023-09-18T18:34:46.157Z,71.02
2023-09-18T18:37:14.716Z,72.64
2023-09-18T18:39:43.232Z,73.06
2023-09-18T18:42:11.861Z,74.55
2023-09-18T18:44:40.301Z,74.83
2023-09-18T18:47:09.304Z,75.20
2023-09-18T18:49:37.717Z,75.09
2023-09-18T18:52:08.201Z,74.38
2023-09-18T18:54:37.116Z,74.76
2023-09-18T18:57:06.034Z,75.28
2023-09-18T18:59:34.549Z,74.40
2023-09-18T19:02:05.386Z,73.36
2023-09-18T19:04:35.949Z,74.33
2023-09-18T19:07:05.625Z,74.53
2023-09-18T19:09:35.547Z,75.03
2023-09-18T19:12:06.266Z,74.52
2023-09-18T19:14:35.307Z,75.96
2023-09-18T19:17:06.043Z,77.42
2023-09-18T19:19:35.233Z,79.62
2023-09-18T19:22:04.707Z,81.69
2023-09-18T19:24:34.589Z,82.22
2023-09-18T19:27:04.920Z,82.75
2023-09-18T19:29:35.596Z,85.40
2023-09-18T19:32:04.040Z,88.32
2023-09-18T19:34:32.924Z,88.54
2023-09-18T19:37:08.641Z,88.75
2023-09-18T19:39:40.293Z,87.54
2023-09-18T19:42:10.172Z,86.82
2023-09-18T19:47:10.198Z,88.65
2023-09-18T19:49:38.754Z,87.59
2023-09-18T19:52:08.487Z,86.63
2023-09-18T19:54:38.475Z,84.27
2023-09-18T19:57:07.230Z,82.08
2023-09-18T19:59:35.838Z,81.87
2023-09-18T20:02:07.105Z,80.50
2023-09-18T20:04:36.980Z,81.28
2023-09-18T20:07:09.561Z,80.90
2023-09-18T20:09:39.409Z,81.24
2023-09-18T20:12:10.676Z,83.92
2023-09-18T20:14:39.499Z,86.29
2023-09-18T20:17:08.158Z,83.70
2023-09-18T20:19:36.777Z,83.61
2023-09-18T20:22:05.351Z,84.16
2023-09-18T20:24:33.962Z,85.51
2023-09-18T20:27:04.294Z,86.85
2023-09-18T20:29:33.953Z,87.79
2023-09-18T20:32:02.475Z,89.72
2023-09-18T20:34:30.984Z,87.40
2023-09-18T20:36:59.573Z,85.40
2023-09-18T20:39:28.146Z,82.63
2023-09-18T20:41:57.717Z,84.51
2023-09-18T20:44:27.562Z,83.43
2023-09-18T20:46:56.060Z,84.96
2023-09-18T20:49:24.591Z,84.74
2023-09-18T20:51:53.792Z,85.62
2023-09-18T20:54:22.188Z,90.36
2023-09-18T20:56:50.797Z,93.76
2023-09-18T20:59:19.347Z,95.55
2023-09-18T21:01:49.406Z,96.20
2023-09-18T21:04:18.021Z,95.87
2023-09-18T21:06:46.531Z,96.44
2023-09-18T21:09:14.973Z,93.45
2023-09-18T21:11:45.286Z,93.50
2023-09-18T21:14:13.856Z,95.84
2023-09-18T21:16:42.395Z,96.95
2023-09-18T21:19:12.665Z,96.04
2023-09-18T21:21:41.140Z,95.21
2023-09-18T21:24:10.275Z,93.03
2023-09-18T21:26:39.207Z,91.11
2023-09-18T21:29:07.757Z,91.99
2023-09-18T21:31:36.511Z,90.84
2023-09-18T21:34:05.042Z,88.38
2023-09-18T21:36:35.928Z,91.75
2023-09-18T21:39:04.788Z,91.22
2023-09-18T21:41:33.359Z,91.47
2023-09-18T21:44:01.802Z,94.37
2023-09-18T21:46:32.740Z,96.24
2023-09-18T21:49:01.190Z,94.60
2023-09-18T21:51:30.417Z,92.98
2023-09-18T21:54:00.313Z,93.98
2023-09-18T21:56:28.787Z,91.30
2023-09-18T21:58:57.253Z,89.25
2023-09-18T22:01:25.721Z,92.54
2023-09-18T22:03:54.275Z,95.23
2023-09-18T22:06:22.803Z,96.33
2023-09-18T22:08:51.305Z,98.57
2023-09-18T22:11:21.250Z,96.79
2023-09-18T22:13:50.279Z,97.99
2023-09-18T22:16:18.825Z,96.98
2023-09-18T22:18:49.617Z,96.46
2023-09-18T22:21:18.143Z,94.47
2023-09-18T22:23:46.912Z,95.47
2023-09-18T22:26:15.502Z,94.30
2023-09-18T22:28:45.638Z,95.00
2023-09-18T22:31:20.041Z,100.00
2023-09-18T22:33:49.238Z,99.91
2023-09-18T22:36:27.758Z,97.55
2023-09-18T22:39:10.833Z,96.00
2023-09-18T22:41:40.107Z,96.51
2023-09-18T22:44:45.896Z,93.01
2023-09-18T22:47:51.835Z,97.33
2023-09-18T22:50:57.591Z,97.90
2023-09-18T22:53:26.827Z,100.00
2023-09-18T22:55:57.544Z,100.00
2023-09-18T23:00:58.957Z,100.00
2023-09-18T23:03:28.469Z,100.00
2023-09-18T23:05:57.203Z,100.00
2023-09-18T23:08:25.838Z,99.33
2023-09-18T23:10:54.356Z,97.45
2023-09-18T23:13:26.235Z,98.50
2023-09-18T23:15:54.892Z,97.49
2023-09-18T23:18:24.281Z,100.00
2023-09-18T23:20:53.254Z,100.00
2023-09-18T23:23:22.221Z,100.00
2023-09-18T23:25:55.643Z,100.00
2023-09-18T23:28:25.799Z,100.00
2023-09-18T23:30:55.039Z,100.00
2023-09-18T23:33:25.424Z,100.00
2023-09-18T23:35:54.640Z,100.00
2023-09-18T23:38:24.870Z,100.00
2023-09-18T23:40:53.277Z,100.00
2023-09-18T23:43:21.979Z,100.00
2023-09-18T23:45:55.617Z,99.78
2023-09-18T23:48:24.365Z,100.00
2023-09-18T23:50:54.027Z,99.85
2023-09-18T23:53:26.188Z,99.07
2023-09-18T23:55:59.446Z,96.97
2023-09-18T23:58:30.412Z,98.28
